Latest Weather Observations for Edithburgh

IDS60801

Issued at 4:31 am CDT Monday 26 January 2015 (issued every 30 minutes, with the page automatically refreshed every 10 minutes)

About weather observations | Map of weather stations | Latest weather observations for SA | Other Formats
Station Details ID: 022046 Name: EDITHBURGH Lat: -35.11 Lon: 137.74 Height: 6.0 m
Data from the previous 72 hours. | See also: Recent months at Edithburgh
Date/Time
CDT
Temp
°C
App
Temp
°C
Dew
Point
Rel
Hum
%
Delta-T
°C
Wind Press
QNH
hPa
Press
MSL
hPa
Rain
since 9 am
mm
Dir
 
Spd
km/h
Gust
km/h
Spd
kts
Gust
kts
26/04:30am 16.0 13.2 8.5 61 3.8 S 13 20 7 11 1016.4 1016.4 0.0
26/04:00am 16.0 13.6 8.5 61 3.8 SSW 11 15 6 8 1016.4 1016.4 0.0
26/03:30am 16.0 13.6 8.5 61 3.8 S 11 17 6 9 1016.3 1016.3 0.0
26/03:00am 16.1 12.1 6.5 53 4.7 SSW 17 20 9 11 1016.2 1016.2 0.0
26/02:30am 15.7 11.3 7.4 57 4.1 SSW 20 28 11 15 1016.3 1016.3 0.0
26/02:00am 15.4 10.4 9.6 68 3.0 SSW 26 32 14 17 1016.3 1016.3 0.0
26/01:30am 16.0 12.9 8.8 62 3.7 SSW 15 22 8 12 1016.4 1016.4 0.0
26/01:00am 16.2 12.2 6.6 53 4.7 SSW 17 24 9 13 1016.7 1016.7 0.0
26/12:30am 16.2 12.3 7.1 55 4.5 S 17 24 9 13 1016.9 1016.9 0.0
26/12:00am 16.2 11.6 6.6 53 4.7 S 20 28 11 15 1016.9 1016.9 0.0
 
Date/Time
CDT
Temp
°C
App
Temp
°C
Dew
Point
Rel
Hum
%
Delta-T
°C
Wind Press
QNH
hPa
Press
MSL
hPa
Rain
since 9 am
mm
Dir
 
Spd
km/h
Gust
km/h
Spd
kts
Gust
kts
25/11:30pm 16.4 12.2 7.4 55 4.5 SSW 19 28 10 15 1016.9 1016.9 0.0
25/11:00pm 16.4 12.2 7.6 56 4.4 S 19 28 10 15 1016.9 1016.9 0.0
25/10:30pm 16.7 11.3 6.2 50 5.1 SSW 24 30 13 16 1016.6 1016.6 0.0
25/10:00pm 16.9 12.0 6.8 51 5.0 S 22 28 12 15 1016.3 1016.3 0.0
25/09:30pm 17.1 12.7 7.3 52 4.9 S 20 30 11 16 1016.1 1016.1 0.0
25/09:00pm 17.2 11.6 7.2 51 5.0 SSW 26 37 14 20 1015.7 1015.7 0.0
25/08:30pm 17.5 12.4 5.8 46 5.7 S 22 30 12 16 1015.5 1015.5 0.0
25/08:00pm 17.9 11.9 5.3 43 6.1 SSW 26 35 14 19 1015.2 1015.2 0.0
25/07:30pm 18.3 12.5 6.4 45 5.9 S 26 39 14 21 1014.8 1014.8 0.0
25/07:00pm 18.6 13.3 6.8 46 5.9 S 24 32 13 17 1014.7 1014.7 0.0
25/06:30pm 20.1 14.6 7.4 43 6.5 SW 26 37 14 20 1014.4 1014.4 0.0
25/06:00pm 20.4 14.6 6.2 39 7.1 SW 26 39 14 21 1014.3 1014.3 0.0
25/05:30pm 20.4 13.9 6.5 40 7.0 SW 30 39 16 21 1014.2 1014.2 0.0
25/05:00pm 20.9 15.1 6.1 38 7.4 SW 26 35 14 19 1014.2 1014.2 0.0
25/04:30pm 20.8 14.9 5.7 37 7.5 SW 26 39 14 21 1014.2 1014.2 0.0
25/04:00pm 21.5 15.8 5.1 34 8.1 SW 24 35 13 19 1014.3 1014.3 0.0
25/03:30pm 21.0 15.4 3.6 32 8.3 SW 22 33 12 18 1014.4 1014.4 0.0
25/03:00pm 21.4 15.6 4.3 32 8.3 SW 24 37 13 20 1014.5 1014.5 0.0
25/02:30pm 21.5 15.3 4.5 33 8.3 SW 26 37 14 20 1014.6 1014.6 0.0
25/02:00pm 19.3 13.2 6.5 43 6.4 SW 28 39 15 21 1014.8 1014.8 0.0
25/01:30pm 19.6 13.9 4.7 37 7.2 SW 24 33 13 18 1014.9 1014.9 0.0
25/01:00pm 19.5 14.0 6.0 41 6.7 SW 24 33 13 18 1015.1 1015.1 0.0
25/12:30pm 20.0 15.1 5.3 38 7.2 SW 20 30 11 16 1015.1 1015.1 0.0
25/12:00pm 18.9 13.9 4.8 39 6.8 SW 20 28 11 15 1015.3 1015.3 0.0
25/11:30am 18.3 13.1 5.3 42 6.3 SSW 22 35 12 19 1015.3 1015.3 0.0
25/11:00am 18.6 12.9 4.9 40 6.6 SW 24 35 13 19 1014.9 1014.9 0.0
25/10:30am 19.2 13.4 2.5 33 7.7 SW 22 32 12 17 1014.7 1014.7 0.0
25/10:00am 18.0 12.0 3.1 37 6.9 SW 24 35 13 19 1014.6 1014.6 0.0
25/09:30am 17.4 11.7 4.8 43 6.0 SW 24 33 13 18 1014.3 1014.3 0.0
25/09:00am 16.2 11.7 6.1 51 4.9 SW 19 28 10 15 1014.0 1014.0 0.0
25/08:30am 16.0 11.3 5.3 49 5.1 SW 19 28 10 15 1013.6 1013.6 0.0
25/08:00am 16.0 11.4 6.3 52 4.7 SW 20 30 11 16 1013.1 1013.1 0.0
25/07:30am 15.9 12.0 5.4 49 5.0 SW 15 20 8 11 1012.8 1012.8 0.0
25/07:00am 15.3 10.8 4.3 48 5.1 SW 17 22 9 12 1012.3 1012.3 0.0
25/06:30am 14.5 10.2 3.5 47 5.0 SW 15 20 8 11 1011.7 1011.7 0.0
25/06:00am 15.2 10.3 4.2 48 5.1 SW 19 26 10 14 1011.3 1011.3 0.0
25/05:30am 15.2 11.5 6.1 54 4.4 SW 15 24 8 13 1011.1 1011.1 0.0
25/05:00am 15.1 11.4 6.4 56 4.2 WSW 15 20 8 11 1010.9 1010.9 0.0
25/04:30am 15.0 11.7 4.5 49 4.9 WSW 11 20 6 11 1010.6 1010.6 0.0
25/04:00am 15.5 11.2 5.4 51 4.8 SW 17 24 9 13 1010.5 1010.5 0.0
25/03:30am 15.5 10.4 6.0 53 4.6 SW 22 33 12 18 1010.3 1010.3 0.0
25/03:00am 16.0 11.2 7.4 56 4.3 SW 22 30 12 16 1010.4 1010.4 0.0
25/02:30am 15.8 11.3 7.1 56 4.3 SW 20 32 11 17 1010.3 1010.3 0.0
25/02:00am 16.0 11.1 8.5 61 3.8 SW 24 33 13 18 1010.3 1010.3 0.0
25/01:30am 16.5 12.0 8.7 60 4.0 SW 22 33 12 18 1010.4 1010.4 0.0
25/01:00am 16.7 12.1 8.3 57 4.3 SW 22 35 12 19 1010.4 1010.4 0.0
25/12:30am 16.7 12.5 9.6 63 3.7 SW 22 33 12 18 1010.4 1010.4 0.0
25/12:00am 16.8 12.3 10.0 64 3.6 SW 24 35 13 19 1010.1 1010.1 0.0
 
Date/Time
CDT
Temp
°C
App
Temp
°C
Dew
Point
Rel
Hum
%
Delta-T
°C
Wind Press
QNH
hPa
Press
MSL
hPa
Rain
since 9 am
mm
Dir
 
Spd
km/h
Gust
km/h
Spd
kts
Gust
kts
24/11:30pm 17.2 13.4 11.3 68 3.2 SW 22 35 12 19 1010.1 1010.1 0.0
24/11:00pm 17.2 12.6 11.1 67 3.3 SW 26 39 14 21 1010.0 1010.0 0.0
24/10:46pm 17.3 12.4 11.2 67 3.3 SW 28 46 15 25 1009.6 1009.6 0.0
24/10:30pm 17.1 13.4 11.4 69 3.1 WSW 22 37 12 20 1009.5 1009.5 0.0
24/10:00pm 16.4 13.4 13.6 83 1.6 WSW 22 41 12 22 1009.0 1009.0 0.0
24/09:46pm 17.0 12.9 13.8 81 1.8 WSW 28 50 15 27 1009.0 1009.0 0.0
24/09:30pm 16.9 14.3 15.0 88 1.1 W 22 32 12 17 1009.0 1009.0 0.0
24/09:18pm 17.6 14.2 14.7 83 1.7 W 26 52 14 28 1008.9 1008.9 0.0
24/09:17pm 18.1 14.8 14.1 77 2.3 W 24 52 13 28 1008.8 1008.8 0.0
24/09:00pm 17.5 15.9 12.9 74 2.6 W 13 20 7 11 1008.4 1008.4 0.0
24/08:30pm 18.1 15.4 13.5 74 2.6 WSW 20 32 11 17 1008.4 1008.4 0.0
24/08:00pm 19.1 15.0 13.9 72 3.0 WSW 28 37 15 20 1008.1 1008.1 0.0
24/07:30pm 21.0 16.5 12.5 58 4.8 WSW 28 37 15 20 1007.4 1007.4 0.0
24/07:00pm 21.9 18.0 12.0 53 5.6 WSW 24 33 13 18 1006.9 1006.9 0.0
24/06:30pm 22.5 16.4 10.3 46 6.7 W 33 44 18 24 1006.5 1006.5 0.0
24/06:00pm 23.9 19.2 11.9 47 6.8 WSW 28 43 15 23 1006.6 1006.6 0.0
24/05:30pm 23.7 18.2 10.5 43 7.3 W 30 46 16 25 1006.4 1006.4 0.0
24/05:00pm 23.1 17.9 11.5 48 6.5 WSW 30 41 16 22 1006.6 1006.6 0.0
24/04:30pm 25.0 19.4 10.2 39 8.2 WSW 30 44 16 24 1006.7 1006.7 0.0
24/04:00pm 23.2 17.6 10.3 44 7.1 WSW 30 44 16 24 1006.8 1006.8 0.0
24/03:30pm 25.0 20.4 10.9 41 7.9 WSW 26 39 14 21 1007.1 1007.1 0.0
24/03:00pm 24.1 19.1 8.1 36 8.5 WSW 24 35 13 19 1007.1 1007.1 0.0
24/02:30pm 24.6 19.2 9.4 38 8.3 W 28 43 15 23 1007.2 1007.2 0.0
24/02:00pm 23.8 19.5 9.5 40 7.8 WSW 22 33 12 18 1007.3 1007.3 0.0
24/01:30pm 25.4 21.3 10.1 38 8.5 WSW 22 37 12 20 1007.5 1007.5 0.0
24/01:00pm 23.9 20.6 9.6 40 7.8 WSW 17 28 9 15 1007.7 1007.7 0.0
24/12:30pm 23.6 19.9 9.4 40 7.7 W 19 37 10 20 1007.6 1007.6 0.0
24/12:00pm 22.3 19.0 9.5 44 6.9 WSW 17 24 9 13 1007.8 1007.8 0.0
24/11:30am 22.0 18.1 9.3 44 6.8 W 20 30 11 16 1008.3 1008.3 0.0
24/11:00am 21.7 17.7 8.9 44 6.8 W 20 28 11 15 1008.1 1008.1 0.0
24/10:30am 21.4 17.5 8.8 44 6.7 W 19 30 10 16 1008.1 1008.1 0.0
24/10:00am 20.6 16.5 8.6 46 6.3 W 20 28 11 15 1008.4 1008.4 0.0
24/09:30am 20.3 16.7 8.5 46 6.2 W 17 26 9 14 1008.6 1008.6 0.0
24/09:00am 20.0 16.9 8.8 48 5.9 WNW 15 20 8 11 1008.5 1008.5 0.0
24/08:30am 19.1 15.5 9.7 54 5.0 WNW 19 24 10 13 1008.5 1008.5 0.0
24/08:00am 17.0 14.3 10.2 64 3.6 WNW 15 19 8 10 1008.4 1008.4 0.0
24/07:30am 15.6 13.9 11.1 74 2.4 WNW 11 15 6 8 1008.2 1008.2 0.0
24/07:00am 13.3 11.6 11.2 87 1.1 NW 11 13 6 7 1007.9 1007.9 0.0
24/06:30am 11.3 9.6 9.9 91 0.7 NW 9 11 5 6 1007.7 1007.7 0.0
24/06:00am 12.5 10.7 10.8 89 0.9 NW 11 13 6 7 1008.0 1008.0 0.0
24/05:30am 13.4 11.3 11.1 86 1.2 WNW 13 15 7 8 1008.0 1008.0 0.0
24/05:00am 14.1 12.5 11.7 85 1.3 WNW 11 15 6 8 1007.9 1007.9 0.0
24/04:30am 14.4 13.3 12.0 85 1.3 WNW 9 11 5 6 1008.0 1008.0 0.0
24/04:00am 15.6 14.3 12.5 82 1.7 WNW 11 13 6 7 1008.1 1008.1 0.0
24/03:30am 16.3 14.9 13.5 83 1.6 WNW 13 15 7 8 1008.1 1008.1 0.0
24/03:00am 16.1 15.0 13.2 83 1.6 WNW 11 15 6 8 1008.3 1008.3 0.0
24/02:30am 16.4 14.8 12.8 79 2.0 WNW 13 17 7 9 1008.4 1008.4 0.0
24/02:00am 17.5 16.2 12.5 72 2.8 WNW 11 15 6 8 1008.6 1008.6 0.0
24/01:30am 17.9 17.0 12.7 71 2.9 WNW 9 13 5 7 1008.9 1008.9 0.0
24/01:00am 17.1 16.6 12.2 73 2.7 NW 6 6 3 3 1009.3 1009.3 0.0
24/12:30am 17.8 18.6 12.6 71 2.9 CALM 0 2 0 1 1009.3 1009.3 0.0
24/12:00am 17.9 17.4 12.5 70 3.0 SE 7 9 4 5 1009.3 1009.3 0.0
 
Date/Time
CDT
Temp
°C
App
Temp
°C
Dew
Point
Rel
Hum
%
Delta-T
°C
Wind Press
QNH
hPa
Press
MSL
hPa
Rain
since 9 am
mm
Dir
 
Spd
km/h
Gust
km/h
Spd
kts
Gust
kts
23/11:30pm 18.2 17.7 12.5 69 3.2 SE 7 11 4 6 1009.6 1009.6 0.0
23/11:00pm 18.0 16.5 12.0 68 3.3 S 11 15 6 8 1009.6 1009.6 0.0
23/10:30pm 18.3 16.6 12.6 69 3.2 SSE 13 17 7 9 1009.5 1009.5 0.0
23/10:00pm 18.5 16.4 13.6 73 2.8 SE 17 22 9 12 1009.5 1009.5 0.0
23/09:30pm 19.0 16.9 13.6 71 3.1 SSE 17 22 9 12 1009.5 1009.5 0.0
23/09:00pm 19.0 17.7 13.8 72 3.0 S 13 15 7 8 1009.3 1009.3 0.0
23/08:30pm 19.0 17.5 13.2 69 3.3 WSW 13 19 7 10 1008.8 1008.8 0.0
23/08:00pm 19.6 16.7 12.3 62 4.1 SW 19 30 10 16 1008.8 1008.8 0.0
23/07:30pm 20.5 17.4 11.5 56 5.0 SW 19 26 10 14 1008.8 1008.8 0.0
23/07:00pm 21.5 18.8 11.7 53 5.5 SW 17 22 9 12 1008.8 1008.8 0.0
23/06:30pm 21.7 18.5 11.3 51 5.8 SSW 19 28 10 15 1008.7 1008.7 0.0
23/06:00pm 21.6 17.7 10.9 50 5.9 SSW 22 30 12 16 1008.8 1008.8 0.0
23/05:30pm 22.3 18.7 10.7 47 6.4 SW 20 28 11 15 1009.0 1009.0 0.0
23/05:00pm 22.3 18.4 10.9 48 6.3 SW 22 30 12 16 1009.1 1009.1 0.0
23/04:30pm 22.6 18.8 11.1 48 6.4 SSW 22 28 12 15 1009.1 1009.1 0.0
23/04:00pm 22.0 18.8 11.9 52 5.7 SSW 20 28 11 15 1009.1 1009.1 0.0
23/03:30pm 22.4 19.5 11.0 48 6.3 SSW 17 26 9 14 1009.3 1009.3 0.0
23/03:00pm 22.4 19.1 10.8 47 6.4 SW 19 28 10 15 1009.7 1009.7 0.0
23/02:30pm 22.6 20.5 11.3 48 6.3 SSW 13 20 7 11 1010.1 1010.1 0.0
23/02:00pm 21.1 19.1 11.6 54 5.3 S 13 22 7 12 1010.1 1010.1 0.0
23/01:30pm 21.6 19.6 11.6 53 5.6 SSW 13 24 7 13 1010.2 1010.2 0.0
23/01:00pm 21.6 18.7 10.9 50 5.9 SSW 17 24 9 13 1010.3 1010.3 0.0
23/12:30pm 21.9 18.9 10.6 48 6.2 S 17 24 9 13 1010.4 1010.4 0.0
23/12:00pm 21.1 17.7 10.7 51 5.7 S 19 22 10 12 1010.5 1010.5 0.0
23/11:30am 21.1 17.6 10.2 49 5.9 SSW 19 26 10 14 1010.6 1010.6 0.0
23/11:00am 21.2 17.9 10.8 51 5.7 SSW 19 24 10 13 1010.5 1010.5 0.0
23/10:30am 20.2 16.8 11.3 56 4.9 SSW 20 28 11 15 1010.6 1010.6 0.0
23/10:00am 20.0 16.7 11.7 59 4.6 SSW 20 30 11 16 1010.5 1010.5 0.0
23/09:30am 20.0 16.8 11.3 57 4.8 SW 19 30 10 16 1010.5 1010.5 0.0
23/09:00am 19.2 16.0 12.0 63 4.0 SW 20 30 11 16 1010.5 1010.5 0.0
23/08:30am 18.7 15.5 13.0 69 3.2 SSW 22 30 12 16 1010.1 1010.1 0.0
23/08:00am 17.8 15.8 15.4 86 1.4 SSW 20 30 11 16 1009.7 1009.7 0.0
23/07:30am 18.7 17.3 15.5 81 1.9 SSW 17 24 9 13 1009.0 1009.0 0.0
23/07:00am 18.9 17.6 15.9 83 1.8 SSW 17 24 9 13 1008.7 1008.7 0.0
23/06:30am 17.5 17.9 14.7 83 1.6 WSW 6 11 3 6 1008.6 1008.6 0.0
23/06:00am 18.2 18.5 14.9 81 1.9 SW 7 13 4 7 1008.2 1008.2 0.0
23/05:30am 17.3 16.8 12.6 74 2.6 WSW 7 9 4 5 1008.3 1008.3 0.0
23/05:00am 17.2 15.7 10.5 64 3.6 SW 9 13 5 7 1007.8 1007.8 0.0

Other Formats:

Comma delimited format used in spreadsheet applications
http://www.bom.gov.au/fwo/IDS60801/IDS60801.94809.axf

JavaScript Object Notation format (JSON) in row-major order
http://www.bom.gov.au/fwo/IDS60801/IDS60801.94809.json